Friday, January 19, 2018, 10:35 PM EST
Back to Local

KCAR, Caribou Municipal Airport

Location: Caribou, ME, United States Lat: 46.867
Local Time: 10:35 PM EST ( 3:35 GMT) Lon: -68.017
Time Zone: US/Eastern Elev: 626 ft

Show me the last for .
Show Decoded

2018-01-19 21:54 METAR KCAR 200254Z AUTO 15006KT 10SM OVC020 M05/M08 A2970 RMK AO2 SLP073
                 T10501078 58010 =
2018-01-19 20:54 METAR KCAR 200154Z AUTO 19004KT 10SM OVC021 M05/M08 A2974 RMK AO2 SLP085
                 T10501078 =
2018-01-19 19:54 METAR KCAR 200054Z AUTO 18006KT 10SM OVC023 M06/M08 A2974 RMK AO2 SLP086
                 T10561083 =
2018-01-19 19:26 METAR KCAR 200026Z AUTO 18005KT 10SM BKN023 OVC060 M06/M08 A2975 RMK AO2
                 T10561083 =
2018-01-19 19:18 METAR KCAR 200018Z AUTO 17005KT 10SM SCT023 BKN047 OVC060 M06/M08 A2974 =
2018-01-19 18:54 METAR KCAR 192354Z AUTO 16006KT 10SM BKN021 BKN030 OVC048 M06/M08 A2973 RMK AO2
                 PRESFR SLP083 60000 T10561083 11056 21078 58017 =
2018-01-19 17:54 METAR KCAR 192254Z AUTO 18005KT 10SM OVC021 M06/M08 A2977 RMK AO2 SLP095
                 T10561083 =
2018-01-19 16:54 METAR KCAR 192154Z AUTO 17005KT 10SM BKN023 OVC030 M06/M09 A2977 RMK AO2 SLP096
                 T10611089 =
2018-01-19 16:08 METAR KCAR 192108Z AUTO 17005KT 10SM BKN021 OVC031 M06/M09 A2978 RMK AO2
                 T10611089 =
2018-01-19 15:54 METAR KCAR 192054Z AUTO 18006KT 10SM SCT021 OVC031 M06/M09 A2978 RMK AO2
                 SNB1956E21 SLP100 P0000 60000 T10611094 56005 =
2018-01-19 14:54 METAR KCAR 191954Z AUTO 13004KT 8SM OVC020 M06/M09 A2979 RMK AO2 SNE41 SLP101
                 P0000 T10611094 =
2018-01-19 14:03 METAR KCAR 191903Z AUTO 00000KT 3SM -SN SCT024 BKN029 OVC050 M07/M11 A2980 RMK
                 AO2 P0000 T10721106 =
2018-01-19 13:54 METAR KCAR 191854Z AUTO 00000KT 2 1/2SM -SN SCT034 BKN042 OVC050 M07/M11 A2980
                 RMK AO2 SLP105 P0000 T10721106 =
2018-01-19 12:54 METAR KCAR 191754Z AUTO 14005KT 4SM -SN OVC042 M08/M12 A2980 RMK AO2 SNB26
                 SLP105 P0000 60000 T10781117 11078 21111 56014 =
2018-01-19 12:49 METAR KCAR 191749Z AUTO 14004KT 4SM -SN FEW013 OVC042 M08/M12 A2980 RMK AO2
                 SNB26 P0000 =
2018-01-19 12:37 METAR KCAR 191737Z AUTO 09004KT 2 1/2SM -SN SCT013 BKN036 OVC045 M08/M12 A2980 =
2018-01-19 11:54 METAR KCAR 191654Z AUTO 14004KT 10SM OVC012 M08/M12 A2982 RMK AO2 SLP112
                 T10831117 =
2018-01-19 10:54 METAR KCAR 191554Z AUTO 11004KT 10SM OVC014 M09/M12 A2984 RMK AO2 SLP119
                 T10891122 =
2018-01-19 10:25 METAR KCAR 191525Z AUTO 00000KT 10SM BKN016 BKN040 OVC055 M09/M12 A2985 RMK AO2
                 T10891122 =
2018-01-19 10:13 METAR KCAR 191513Z AUTO 00000KT 10SM SCT016 BKN039 OVC050 M09/M12 A2985 RMK AO2
                 T10891122 =
2018-01-19 09:54 METAR KCAR 191454Z AUTO 00000KT 10SM BKN016 OVC050 M09/M12 A2985 RMK AO2 SLP122
                 T10941122 51007 =
2018-01-19 08:54 METAR KCAR 191354Z AUTO 00000KT 10SM OVC016 M11/M14 A2984 RMK AO2 SLP120
                 T11111139 =
2018-01-19 07:54 METAR KCAR 191254Z AUTO 00000KT 10SM OVC016 M11/M13 A2984 RMK AO2 SLP119
                 T11061128 =
2018-01-19 06:54 METAR KCAR 191154Z AUTO 00000KT 10SM OVC018 M11/M14 A2982 RMK AO2 SLP114 60000
                 7//// T11111139 11089 21111 51004 =
2018-01-19 05:54 METAR KCAR 191054Z AUTO 00000KT 10SM OVC019 M11/M13 A2982 RMK AO2 SLP113
                 T11111133 =
2018-01-19 04:54 METAR KCAR 190954Z AUTO 31004KT 10SM BKN019 M11/M13 A2982 RMK AO2 SLP113
                 T11061133 =
2018-01-19 04:09 METAR KCAR 190909Z AUTO 00000KT 10SM SCT029 M11/M13 A2982 RMK AO2 T11061133 =
2018-01-19 04:02 METAR KCAR 190902Z AUTO 29003KT 10SM BKN029 M11/M13 A2981 RMK AO2 T11111133 =
2018-01-19 03:54 METAR KCAR 190854Z AUTO 31003KT 10SM BKN030 M10/M13 A2981 RMK AO2 SLP109 60000
                 T11001128 53003 =
2018-01-19 02:54 METAR KCAR 190754Z AUTO 31004KT 10SM SCT029 M10/M13 A2980 RMK AO2 SLP105
                 T11001133 =
2018-01-19 02:52 METAR KCAR 190752Z AUTO 31004KT 10SM SCT029 M11/M13 A2980 RMK AO2 =
2018-01-19 01:54 METAR KCAR 190654Z AUTO 33005KT 10SM OVC029 M09/M12 A2980 RMK AO2 SNE02 SLP105
                 P0000 T10891122 =
2018-01-19 01:28 METAR KCAR 190628Z AUTO 33008KT 10SM OVC029 M08/M12 A2979 RMK AO2 SNE02 P0000
                 T10831117 TSNO =
2018-01-19 00:54 METAR KCAR 190554Z AUTO 33007KT 6SM -SN OVC030 M08/M11 A2979 RMK AO2 SLP101
                 P0000 60000 T10781111 11072 21106 58007 =
2018-01-18 23:54 METAR KCAR 190454Z AUTO 27003KT 4SM -SN BR FEW013 OVC030 M09/M11 A2982 RMK AO2
                 SLPNO P0000 T10891111 410331106 =
2018-01-18 22:54 METAR KCAR 190354Z AUTO 24005KT 6SM -SN FEW018 OVC029 M08/M11 A2983 RMK AO2
                 SNB49 SLP114 P0000 T10831111 =
2018-01-18 22:38 METAR KCAR 190338Z AUTO 23004KT 9SM FEW020 OVC029 M08/M11 A2983 =

Support USWX by starting your Amazon purchase here.